Terminal Aerodrome Forecast
Issued by NWS Charleston, SC

Home | Current Version | Previous Version | Text Only | Print | Product List | Glossary On
Versions: 1 2 3 4 5 6 7 8 9 10 11 12 13 14 15 16 17 18
000
FTUS42 KCHS 061734
TAFCHS
TAF
KCHS 061734Z 0618/0718 20008KT P6SM BKN020
     FM062100 26011KT P6SM SCT020
     FM070000 30009KT P6SM FEW020
     FM070600 32004KT 3SM MIFG SCT002
     FM071500 01004KT P6SM FEW005=

USA.gov is the U.S. government's official web portal to all federal, state and local government web resources and services.